Time;durP1;ratioP1;P1;durP2;ratioP2;P2;SDS_P1;SDS_P2;PMS_P1;PMS_P2;Temp;Humidity;BMP_temperature;BMP_pressure;BME280_temperature;BME280_humidity;BME280_pressure;Samples;Min_cycle;Max_cycle;Signal;HPM_P1;HPM_P2
2023/04/11 00:04:02;;;;;;;16.42;4.53;;;;;;;9.27;100.00;100070.00;10456629;28;20041;-83
2023/04/11 00:09:03;;;;;;;11.27;3.90;;;;;;;9.50;100.00;100113.41;10456193;28;20060;-82
2023/04/11 00:14:07;;;;;;;18.48;4.70;;;;;;;9.48;100.00;100119.88;10455061;28;20428;-83
2023/04/11 00:19:08;;;;;;;15.90;4.57;;;;;;;9.43;100.00;100109.78;10414772;28;20045;-85
2023/04/11 00:24:09;;;;;;;10.68;4.22;;;;;;;9.45;100.00;100126.31;10414647;28;20397;-83
2023/04/11 00:29:10;;;;;;;9.82;4.20;;;;;;;9.25;100.00;100104.63;10414044;28;20103;-84
2023/04/11 00:34:11;;;;;;;13.73;4.60;;;;;;;9.31;100.00;100103.16;10413821;28;20049;-84
2023/04/11 00:39:12;;;;;;;9.57;4.45;;;;;;;9.37;100.00;100119.22;10414118;28;20045;-82
2023/04/11 00:44:12;;;;;;;12.07;4.85;;;;;;;8.90;100.00;100042.16;10413960;28;20071;-83
2023/04/11 00:49:13;;;;;;;11.50;5.03;;;;;;;9.26;100.00;100105.47;10412499;28;20088;-84
2023/04/11 00:54:15;;;;;;;15.32;4.53;;;;;;;9.34;100.00;100114.25;10413332;28;20048;-83
2023/04/11 00:59:16;;;;;;;10.32;3.75;;;;;;;9.25;100.00;100099.34;10446060;28;20051;-83
2023/04/11 01:04:17;;;;;;;8.35;3.90;;;;;;;9.06;100.00;100055.44;10421895;28;20520;-83
2023/04/11 01:09:20;;;;;;;12.75;3.97;;;;;;;9.15;100.00;100061.53;10412247;28;20061;-83
2023/04/11 01:14:23;;;;;;;8.05;3.42;;;;;;;9.20;100.00;100064.53;10412405;28;20045;-82
2023/04/11 01:19:25;;;;;;;13.48;4.18;;;;;;;9.31;100.00;100074.00;10413989;28;20124;-83
2023/04/11 01:24:27;;;;;;;11.13;3.90;;;;;;;9.33;100.00;100072.84;10413487;28;20033;-83
2023/04/11 01:29:28;;;;;;;8.80;3.80;;;;;;;9.24;100.00;100047.28;10417536;28;20471;-83
2023/04/11 01:34:32;;;;;;;12.95;3.75;;;;;;;9.29;100.00;100073.31;10453860;28;20077;-83
2023/04/11 01:39:33;;;;;;;7.20;3.50;;;;;;;9.25;100.00;100064.06;10453549;28;20443;-83
2023/04/11 01:44:36;;;;;;;9.90;3.60;;;;;;;9.21;100.00;100057.41;10453544;28;20049;-83
2023/04/11 01:49:37;;;;;;;8.63;3.15;;;;;;;9.17;100.00;100054.28;10452914;28;20115;-83
2023/04/11 01:54:39;;;;;;;9.15;3.47;;;;;;;9.34;100.00;100086.91;10453221;28;20404;-84
2023/04/11 01:59:40;;;;;;;8.60;3.60;;;;;;;9.32;100.00;100088.88;10452923;28;20052;-82
2023/04/11 02:04:41;;;;;;;11.13;3.45;;;;;;;9.21;100.00;100066.19;10453271;28;20048;-83
2023/04/11 02:09:42;;;;;;;9.07;3.17;;;;;;;9.16;100.00;100063.22;10452991;28;20505;-83
2023/04/11 02:14:45;;;;;;;5.63;3.20;;;;;;;9.04;100.00;100046.81;10480975;28;20079;-84
2023/04/11 02:19:45;;;;;;;7.93;3.10;;;;;;;9.01;100.00;100043.69;10482949;28;20072;-82
2023/04/11 02:24:46;;;;;;;12.30;3.28;;;;;;;8.73;100.00;99988.34;10468989;28;20087;-83
2023/04/11 02:29:47;;;;;;;6.95;3.35;;;;;;;9.10;100.00;100055.94;10442807;28;20160;-82
2023/04/11 02:34:48;;;;;;;6.95;3.50;;;;;;;9.40;100.00;100094.19;10418285;28;20049;-83
2023/04/11 02:39:49;;;;;;;9.63;3.97;;;;;;;9.17;100.00;100056.09;10417965;28;20045;-80
2023/04/11 02:44:53;;;;;;;8.68;3.65;;;;;;;9.29;100.00;100070.66;10433405;28;20029;-83
2023/04/11 02:49:54;;;;;;;7.10;3.40;;;;;;;8.99;100.00;100006.75;10434352;28;20043;-82
2023/04/11 02:54:55;;;;;;;7.82;3.55;;;;;;;10.04;100.00;100123.44;10495684;28;20072;-82
2023/04/11 02:59:55;;;;;;;11.02;3.50;;;;;;;10.34;100.00;100115.75;10495083;28;20403;-81
2023/04/11 03:04:56;;;;;;;7.05;3.22;;;;;;;10.47;100.00;100111.53;10493474;28;20032;-83
2023/04/11 03:09:57;;;;;;;9.25;3.45;;;;;;;10.48;100.00;100091.94;10495006;28;20061;-83
2023/04/11 03:14:58;;;;;;;8.90;3.35;;;;;;;10.16;100.00;100023.03;10494172;28;20115;-82
2023/04/11 03:19:59;;;;;;;6.57;3.10;;;;;;;10.24;100.00;100001.78;10494098;28;20054;-83
2023/04/11 03:25:00;;;;;;;11.73;3.58;;;;;;;11.33;99.93;100112.31;10493741;28;20040;-83
2023/04/11 03:30:01;;;;;;;5.53;3.22;;;;;;;11.54;98.42;100060.28;10493865;28;20036;-84
2023/04/11 03:35:02;;;;;;;8.20;3.10;;;;;;;12.49;94.91;100105.66;10493472;28;20048;-80
2023/04/11 03:40:05;;;;;;;12.02;3.15;;;;;;;12.21;93.32;99975.03;10496033;28;20036;-83
2023/04/11 03:45:07;;;;;;;7.70;2.90;;;;;;;13.11;91.26;100026.16;10400804;28;20061;-82
2023/04/11 03:50:09;;;;;;;5.28;2.90;;;;;;;13.65;88.99;100082.41;10383117;28;20055;-82
2023/04/11 03:55:10;;;;;;;7.10;2.72;;;;;;;14.01;87.25;100069.91;10374729;28;20561;-80
2023/04/11 04:00:11;;;;;;;4.22;2.58;;;;;;;14.23;85.27;100065.28;10373930;28;20125;-77
2023/04/11 04:05:12;;;;;;;6.32;2.50;;;;;;;14.17;83.83;100029.50;10374603;28;20038;-79
2023/04/11 04:10:13;;;;;;;6.55;2.60;;;;;;;14.47;82.94;100043.38;10374607;28;20058;-82
2023/04/11 04:15:14;;;;;;;8.45;2.58;;;;;;;14.29;81.66;99949.59;10374405;28;20041;-80
2023/04/11 04:20:15;;;;;;;8.43;2.78;;;;;;;14.92;80.20;100034.88;10373807;28;20042;-81
2023/04/11 04:25:18;;;;;;;5.20;2.63;;;;;;;15.36;78.89;100105.75;10373715;28;20056;-78
2023/04/11 04:30:20;;;;;;;7.03;2.55;;;;;;;15.44;78.49;100101.00;10377575;28;20409;-83
2023/04/11 04:35:21;;;;;;;6.47;2.83;;;;;;;15.62;77.10;100102.25;10383497;28;20051;-78
2023/04/11 04:40:22;;;;;;;6.78;2.70;;;;;;;15.41;76.31;100098.75;10391378;28;20123;-79
2023/04/11 04:45:24;;;;;;;8.68;2.78;;;;;;;15.37;75.79;100086.78;10407249;28;20099;-74
2023/04/11 04:50:26;;;;;;;8.40;2.55;;;;;;;15.05;75.09;100057.13;10383843;28;20145;-80
2023/04/11 04:55:27;;;;;;;6.80;2.50;;;;;;;14.36;75.45;100001.25;10373378;28;20085;-82
2023/04/11 05:00:28;;;;;;;10.15;2.88;;;;;;;14.52;76.20;100093.63;10372848;28;20034;-80
2023/04/11 05:05:29;;;;;;;8.38;2.45;;;;;;;14.10;76.40;100044.69;10371845;28;20041;-79
2023/04/11 05:10:30;;;;;;;5.07;2.90;;;;;;;14.21;76.87;100078.88;10371851;28;20046;-81
2023/04/11 05:15:31;;;;;;;7.90;2.80;;;;;;;14.53;76.98;100096.06;10372418;28;20082;-80
2023/04/11 05:20:32;;;;;;;6.35;2.50;;;;;;;14.30;75.00;99999.38;10372565;28;20545;-79
2023/04/11 05:25:33;;;;;;;5.70;2.50;;;;;;;14.60;74.90;100038.13;10372122;28;20516;-80
2023/04/11 05:30:33;;;;;;;15.13;2.72;;;;;;;14.90;74.16;100063.69;10371842;28;20045;-81
2023/04/11 05:35:34;;;;;;;6.65;2.63;;;;;;;14.57;73.51;100001.13;10372087;28;20046;-79
2023/04/11 05:40:35;;;;;;;10.02;2.58;;;;;;;15.02;73.80;100068.25;10372100;28;20513;-81
2023/04/11 05:45:38;;;;;;;3.80;2.30;;;;;;;14.91;72.30;100039.41;10372447;28;20038;-78
2023/04/11 05:50:39;;;;;;;6.28;2.67;;;;;;;14.99;72.17;100009.00;10373706;28;20042;-81
2023/04/11 05:55:40;;;;;;;6.18;2.53;;;;;;;15.29;71.68;100041.50;10380306;28;20070;-84
2023/04/11 06:00:41;;;;;;;8.20;2.75;;;;;;;15.18;71.70;100088.44;10378855;28;20073;-82
2023/04/11 06:05:42;;;;;;;6.72;2.40;;;;;;;15.49;69.26;100068.25;10379776;28;20045;-87
2023/04/11 06:10:42;;;;;;;7.43;2.63;;;;;;;16.15;67.16;100064.66;10379319;28;20140;-84
2023/04/11 06:15:53;;;;;;;8.32;2.67;;;;;;;16.28;64.61;100074.53;10378786;28;20045;-84
2023/04/11 06:21:00;;;;;;;6.93;2.45;;;;;;;16.36;64.50;100072.44;10378143;28;20046;-84
2023/04/11 06:26:10;;;;;;;6.20;2.08;;;;;;;16.33;64.25;100062.13;10378032;28;20046;-84
2023/04/11 06:31:10;;;;;;;6.30;2.55;;;;;;;16.02;63.16;99977.13;10377767;28;20052;-82
2023/04/11 06:36:11;;;;;;;6.47;2.03;;;;;;;16.36;62.15;99940.22;10377628;28;20512;-81
2023/04/11 06:41:12;;;;;;;5.53;2.08;;;;;;;17.03;60.98;99964.75;10377175;28;20406;-82
2023/04/11 06:46:12;;;;;;;6.90;2.42;;;;;;;17.36;59.26;100012.78;10378253;28;20045;-83
2023/04/11 06:51:13;;;;;;;5.45;2.20;;;;;;;17.41;59.86;100009.44;10377442;28;20041;-82
2023/04/11 06:56:14;;;;;;;6.45;2.53;;;;;;;16.94;59.04;99979.50;10377011;28;20056;-83
2023/04/11 07:01:15;;;;;;;5.68;2.20;;;;;;;17.18;59.56;100061.88;10376936;28;20057;-82
2023/04/11 07:06:15;;;;;;;6.57;2.60;;;;;;;16.94;59.42;100030.47;10377838;28;20088;-81
2023/04/11 07:11:16;;;;;;;8.45;2.80;;;;;;;17.33;59.20;100003.31;10376960;28;20409;-81
2023/04/11 07:16:17;;;;;;;4.32;2.33;;;;;;;17.95;57.54;100029.38;10376804;28;20042;-80
2023/04/11 07:21:18;;;;;;;11.68;3.45;;;;;;;17.87;56.84;99963.31;10376297;28;20049;-83
2023/04/11 07:26:19;;;;;;;11.23;2.78;;;;;;;18.29;56.57;99967.97;10375431;28;20042;-82
2023/04/11 07:31:21;;;;;;;7.38;2.50;;;;;;;18.65;55.24;99997.44;10374314;28;20038;-81
2023/04/11 07:36:22;;;;;;;16.48;2.72;;;;;;;18.58;54.87;99995.91;10375228;28;20045;-83
2023/04/11 07:41:22;;;;;;;8.10;2.60;;;;;;;17.94;54.52;99941.72;10375827;28;20042;-81
2023/04/11 07:46:23;;;;;;;10.18;3.08;;;;;;;18.14;56.26;99974.56;10375274;28;20179;-81
2023/04/11 07:51:25;;;;;;;14.90;3.00;;;;;;;18.16;54.73;99959.03;10374332;28;20573;-80
2023/04/11 07:56:26;;;;;;;10.30;2.58;;;;;;;18.47;53.62;99881.84;10374038;28;20114;-82
2023/04/11 08:01:26;;;;;;;11.02;2.65;;;;;;;19.05;53.11;99961.84;10373245;28;20103;-81
2023/04/11 08:06:27;;;;;;;8.52;2.50;;;;;;;19.13;52.46;99950.72;10373881;28;20038;-82
2023/04/11 08:11:28;;;;;;;7.05;2.17;;;;;;;19.14;51.16;99930.00;10374241;28;20170;-83
2023/04/11 08:16:29;;;;;;;6.65;2.40;;;;;;;19.28;50.98;99936.00;10373651;28;20120;-82
2023/04/11 08:21:30;;;;;;;5.60;2.22;;;;;;;18.93;49.69;99831.81;10372383;28;20046;-80
2023/04/11 08:26:31;;;;;;;5.82;2.22;;;;;;;18.25;49.83;99825.91;10373065;28;20042;-81
2023/04/11 08:31:32;;;;;;;10.13;2.30;;;;;;;18.31;50.74;99844.84;10372935;28;20046;-81
2023/04/11 08:36:33;;;;;;;11.93;2.72;;;;;;;19.16;50.08;99893.72;10373425;28;20038;-79
2023/04/11 08:41:34;;;;;;;4.25;1.80;;;;;;;19.23;49.34;99833.53;10373132;28;20037;-79
2023/04/11 08:46:40;;;;;;;7.65;1.95;;;;;;;19.50;49.52;99885.81;10373308;28;20049;-79
2023/04/11 08:51:43;;;;;;;16.48;2.40;;;;;;;20.04;47.44;99886.41;10372283;28;20069;-77
2023/04/11 08:56:44;;;;;;;6.80;1.77;;;;;;;19.97;47.31;99831.78;10372419;28;20049;-83
2023/04/11 09:01:45;;;;;;;10.68;2.03;;;;;;;20.15;47.33;99863.13;10372228;28;20125;-80
2023/04/11 09:06:57;;;;;;;8.18;1.80;;;;;;;20.16;45.12;99855.84;10372228;28;20124;-79
2023/04/11 09:11:58;;;;;;;8.10;2.33;;;;;;;19.34;46.98;99786.91;10372339;28;20077;-79
2023/04/11 09:17:01;;;;;;;10.35;2.05;;;;;;;19.14;47.74;99860.00;10373051;28;20065;-81
2023/04/11 09:22:04;;;;;;;11.73;1.77;;;;;;;19.81;47.90;99848.75;10372382;28;20555;-82
2023/04/11 09:27:15;;;;;;;9.32;1.67;;;;;;;20.47;46.61;99847.22;10378027;28;20167;-80
2023/04/11 09:32:29;;;;;;;8.98;2.13;;;;;;;20.69;45.60;99841.09;10380442;28;20132;-78
2023/04/11 09:37:47;;;;;;;11.52;2.40;;;;;;;20.18;45.37;99767.44;10380509;28;20042;-80
2023/04/11 09:42:59;;;;;;;6.10;1.92;;;;;;;20.29;44.48;99775.44;10380129;28;20067;-81
2023/04/11 09:48:00;;;;;;;7.45;2.05;;;;;;;21.19;45.47;99800.50;10379393;28;20041;-80
2023/04/11 09:53:01;;;;;;;9.32;2.08;;;;;;;21.14;45.16;99714.00;10380057;28;20041;-79
2023/04/11 09:58:05;;;;;;;8.63;2.33;;;;;;;20.83;43.71;99683.13;10379995;28;20124;-80
2023/04/11 10:03:05;;;;;;;7.53;2.00;;;;;;;21.62;43.86;99749.38;10378655;28;20444;-80
2023/04/11 10:08:21;;;;;;;7.28;2.25;;;;;;;21.23;43.22;99708.97;10379102;28;20099;-78
2023/04/11 10:13:36;;;;;;;10.90;2.70;;;;;;;21.01;44.36;99729.78;10379042;28;20045;-77
2023/04/11 10:18:59;;;;;;;11.63;3.38;;;;;;;20.69;44.48;99607.09;10378349;28;20038;-81
2023/04/11 10:24:20;;;;;;;10.45;2.30;;;;;;;21.29;43.82;99667.41;10379986;28;20053;-79
2023/04/11 10:29:32;;;;;;;9.98;2.28;;;;;;;21.38;43.71;99659.69;10418676;28;20046;-78
2023/04/11 10:34:37;;;;;;;10.35;2.20;;;;;;;21.27;44.38;99615.56;10418402;28;20033;-80
2023/04/11 10:39:47;;;;;;;14.00;2.20;;;;;;;21.57;43.26;99646.66;10385127;28;20092;-80
2023/04/11 10:45:16;;;;;;;7.85;2.25;;;;;;;21.52;43.97;99630.38;10377136;28;20045;-80
2023/04/11 10:50:26;;;;;;;12.23;2.20;;;;;;;21.53;43.82;99654.44;10377681;28;20053;-82
2023/04/11 10:55:29;;;;;;;7.57;2.05;;;;;;;21.32;44.03;99625.56;10376959;28;20509;-80
2023/04/11 11:01:11;;;;;;;11.63;2.07;;;;;;;21.34;43.91;99635.06;10376604;28;20125;-80
2023/04/11 11:06:13;;;;;;;13.13;2.63;;;;;;;21.35;43.24;99641.28;10377009;28;20049;-79
2023/04/11 11:11:18;;;;;;;13.80;2.25;;;;;;;21.10;42.83;99590.53;10377149;28;20053;-81
2023/04/11 11:16:23;;;;;;;14.63;2.90;;;;;;;21.36;42.46;99637.56;10377289;28;20046;-83
2023/04/11 11:21:26;;;;;;;10.43;2.53;;;;;;;21.54;43.11;99645.28;10375988;28;20125;-78
2023/04/11 11:26:39;;;;;;;15.97;2.87;;;;;;;21.06;42.96;99541.63;10376219;28;20036;-81
2023/04/11 11:31:44;;;;;;;20.27;3.10;;;;;;;21.31;42.33;99592.34;10375154;28;20121;-81
2023/04/11 11:36:45;;;;;;;11.45;2.95;;;;;;;21.33;42.82;99610.97;10375346;28;20053;-80
2023/04/11 11:41:47;;;;;;;16.73;2.72;;;;;;;20.74;43.00;99533.50;10376050;28;20462;-81
2023/04/11 11:47:16;;;;;;;14.02;2.47;;;;;;;20.86;43.24;99528.75;10375029;28;20033;-81
2023/04/11 11:52:39;;;;;;;14.25;3.42;;;;;;;20.96;44.07;99580.13;10374919;28;20046;-81
2023/04/11 11:57:47;;;;;;;15.73;3.30;;;;;;;20.80;44.24;99564.84;10375616;28;20437;-80
2023/04/11 12:02:51;;;;;;;13.73;3.05;;;;;;;20.42;44.28;99542.28;10374807;28;20128;-78
2023/04/11 12:07:57;;;;;;;14.40;3.72;;;;;;;20.14;44.86;99539.78;10373689;28;20112;-82
2023/04/11 12:12:58;;;;;;;18.58;3.10;;;;;;;20.18;45.43;99541.72;10374858;28;20044;-80
2023/04/11 12:17:58;;;;;;;21.88;4.15;;;;;;;19.44;45.57;99430.75;10373550;28;20049;-81
2023/04/11 12:23:00;;;;;;;16.10;3.47;;;;;;;20.22;45.66;99579.78;10373948;28;20038;-81
2023/04/11 12:28:01;;;;;;;27.60;4.05;;;;;;;20.06;45.62;99565.28;10373216;28;20050;-80
2023/04/11 12:33:02;;;;;;;21.05;3.60;;;;;;;19.93;46.06;99555.69;10373145;28;20120;-79
2023/04/11 12:38:03;;;;;;;15.55;3.13;;;;;;;19.82;46.41;99543.94;10376648;28;20045;-81
2023/04/11 12:43:04;;;;;;;14.95;3.00;;;;;;;19.68;47.15;99542.66;10408591;28;20530;-80
2023/04/11 12:48:05;;;;;;;20.27;3.55;;;;;;;19.56;46.97;99528.44;10413729;28;20049;-83
2023/04/11 12:53:06;;;;;;;20.00;3.83;;;;;;;18.90;47.15;99434.00;10411106;28;20140;-82
2023/04/11 12:58:08;;;;;;;21.67;3.33;;;;;;;19.38;47.59;99489.13;10409186;28;20120;-81
2023/04/11 13:03:09;;;;;;;15.27;3.90;;;;;;;18.92;47.60;99437.25;10412404;28;20057;-84
2023/04/11 13:08:10;;;;;;;20.88;4.13;;;;;;;18.80;47.98;99415.00;10409578;28;20112;-84
2023/04/11 13:13:12;;;;;;;20.25;3.50;;;;;;;19.13;48.00;99479.59;10401789;28;20077;-84
2023/04/11 13:18:13;;;;;;;23.23;4.10;;;;;;;19.03;48.42;99465.97;10376270;28;20490;-83
2023/04/11 13:23:14;;;;;;;21.48;3.72;;;;;;;18.47;48.81;99377.06;10400595;28;20034;-82
2023/04/11 13:28:14;;;;;;;22.00;4.28;;;;;;;18.87;48.55;99464.91;10400098;28;20049;-82
2023/04/11 13:33:15;;;;;;;38.65;4.05;;;;;;;18.83;49.23;99466.44;10386430;28;20096;-83
2023/04/11 13:38:16;;;;;;;19.98;3.30;;;;;;;18.68;49.25;99458.91;10382886;28;20065;-81
2023/04/11 13:43:17;;;;;;;18.83;3.40;;;;;;;18.67;48.96;99465.34;10407301;28;20573;-79
2023/04/11 13:48:17;;;;;;;22.23;3.90;;;;;;;18.46;49.54;99444.53;10384132;28;20084;-81
2023/04/11 13:53:18;;;;;;;23.75;3.70;;;;;;;18.43;49.89;99455.78;10395754;28;20033;-82
2023/04/11 13:58:19;;;;;;;12.38;2.97;;;;;;;18.39;50.35;99462.66;10403224;28;20132;-81
2023/04/11 14:03:20;;;;;;;15.65;3.20;;;;;;;17.70;50.50;99361.34;10384632;28;20042;-84
2023/04/11 14:08:21;;;;;;;16.15;3.47;;;;;;;18.22;51.01;99441.94;10372581;28;20057;-82
2023/04/11 14:13:22;;;;;;;15.93;3.10;;;;;;;18.16;51.08;99450.16;10390290;28;20041;-83
2023/04/11 14:18:24;;;;;;;17.50;3.20;;;;;;;17.71;51.33;99378.28;10385089;28;20075;-84
2023/04/11 14:23:25;;;;;;;20.85;3.38;;;;;;;18.09;51.67;99450.28;10395416;28;20136;-84
2023/04/11 14:28:26;;;;;;;15.77;3.17;;;;;;;18.02;52.03;99444.25;10408334;28;20127;-85
2023/04/11 14:33:27;;;;;;;23.52;4.07;;;;;;;17.76;52.30;99406.06;10417789;28;20048;-82
2023/04/11 14:38:28;;;;;;;14.52;2.88;;;;;;;17.55;52.44;99396.78;10415187;28;20041;-81
2023/04/11 14:43:28;;;;;;;11.80;3.13;;;;;;;17.67;53.14;99412.88;10414747;28;20049;-82
2023/04/11 14:48:29;;;;;;;17.05;3.25;;;;;;;17.58;53.11;99416.97;10416462;28;20566;-83
2023/04/11 14:53:31;;;;;;;16.88;3.42;;;;;;;17.26;53.46;99387.00;10416599;28;20041;-84
2023/04/11 14:58:32;;;;;;;16.52;3.03;;;;;;;17.23;53.99;99406.28;10412001;28;20045;-83
2023/04/11 15:03:33;;;;;;;15.88;2.75;;;;;;;17.03;54.39;99369.06;10398062;28;20046;-82
2023/04/11 15:08:34;;;;;;;14.32;2.58;;;;;;;17.07;54.76;99397.88;10377061;28;20057;-82
2023/04/11 15:13:35;;;;;;;16.40;2.80;;;;;;;16.66;55.05;99354.00;10376223;28;20041;-83
2023/04/11 15:18:36;;;;;;;13.95;2.67;;;;;;;16.75;54.91;99373.25;10376407;28;20480;-82
2023/04/11 15:23:37;;;;;;;10.23;2.60;;;;;;;16.68;55.20;99375.19;10376552;28;20433;-81
2023/04/11 15:28:38;;;;;;;12.38;2.40;;;;;;;16.51;55.56;99363.50;10375943;28;20052;-83
2023/04/11 15:33:39;;;;;;;14.13;2.22;;;;;;;16.48;55.90;99380.88;10394345;28;20045;-84
2023/04/11 15:38:40;;;;;;;11.90;2.72;;;;;;;16.38;56.94;99364.53;10388546;28;20152;-80
2023/04/11 15:43:41;;;;;;;37.70;4.15;;;;;;;16.00;64.25;99343.47;10375510;28;20039;-82
2023/04/11 15:48:43;;;;;;;35.20;3.85;;;;;;;15.35;67.00;99275.31;10376416;28;20038;-82
2023/04/11 15:53:44;;;;;;;17.08;2.97;;;;;;;15.62;67.89;99342.72;10386403;28;20461;-82
2023/04/11 15:58:47;;;;;;;23.50;3.03;;;;;;;15.23;69.23;99312.72;10375084;28;20049;-80
2023/04/11 16:03:49;;;;;;;25.80;3.05;;;;;;;15.43;69.76;99371.31;10374690;28;20042;-84
2023/04/11 16:08:50;;;;;;;19.98;3.20;;;;;;;14.89;70.68;99300.72;10374134;28;20058;-83
2023/04/11 16:13:51;;;;;;;21.88;3.00;;;;;;;14.98;71.42;99326.13;10376333;28;20096;-83
2023/04/11 16:18:52;;;;;;;23.02;3.33;;;;;;;14.91;72.33;99368.16;10414080;28;20038;-85
2023/04/11 16:23:53;;;;;;;17.48;3.35;;;;;;;14.75;72.07;99332.13;10413153;28;20033;-84
2023/04/11 16:28:54;;;;;;;24.60;3.30;;;;;;;14.83;72.43;99357.75;10409379;28;20045;-84
2023/04/11 16:33:55;;;;;;;27.23;3.63;;;;;;;14.81;73.64;99374.03;10382894;28;20046;-82
2023/04/11 16:38:56;;;;;;;27.67;3.45;;;;;;;14.74;73.28;99381.25;10375436;28;20041;-82
2023/04/11 16:43:56;;;;;;;16.27;2.95;;;;;;;14.66;73.42;99373.53;10381751;28;20046;-84
2023/04/11 16:48:58;;;;;;;18.45;2.95;;;;;;;14.27;72.93;99300.66;10372992;28;20461;-82
2023/04/11 16:53:58;;;;;;;26.08;3.10;;;;;;;14.37;73.34;99297.47;10372908;28;20037;-82
2023/04/11 16:58:59;;;;;;;18.80;2.92;;;;;;;14.35;73.73;99291.53;10372483;28;20042;-83
2023/04/11 17:04:00;;;;;;;13.30;2.60;;;;;;;14.10;74.06;99276.31;10372752;28;20066;-81
2023/04/11 17:09:01;;;;;;;22.65;2.90;;;;;;;13.60;73.92;99251.38;10370174;28;20057;-81
2023/04/11 17:14:01;;;;;;;23.27;2.75;;;;;;;13.93;73.86;99348.09;10390571;28;20045;-82
2023/04/11 17:19:02;;;;;;;19.88;2.97;;;;;;;13.78;74.03;99347.56;10381838;28;20417;-86
2023/04/11 17:24:03;;;;;;;13.27;2.80;;;;;;;14.18;73.66;99407.94;10387530;28;20037;-82
2023/04/11 17:29:05;;;;;;;15.63;2.63;;;;;;;14.05;73.79;99387.47;10413163;28;20045;-82
2023/04/11 17:34:06;;;;;;;26.38;3.25;;;;;;;14.06;74.58;99407.81;10411971;28;20052;-84
2023/04/11 17:39:08;;;;;;;25.92;3.03;;;;;;;14.05;74.45;99404.31;10401763;28;20042;-86
2023/04/11 17:44:09;;;;;;;15.10;2.50;;;;;;;13.85;75.19;99356.38;10370944;28;20077;-85
2023/04/11 17:49:10;;;;;;;19.30;3.35;;;;;;;13.69;75.67;99332.84;10379736;28;20482;-84
2023/04/11 17:54:10;;;;;;;7.97;2.47;;;;;;;13.76;76.03;99359.47;10378422;28;20046;-83
2023/04/11 17:59:12;;;;;;;12.82;2.50;;;;;;;13.63;76.14;99373.72;10379815;28;20498;-85
2023/04/11 18:04:14;;;;;;;14.35;2.70;;;;;;;13.16;76.88;99311.66;10379329;28;20049;-84
2023/04/11 18:09:16;;;;;;;13.88;3.25;;;;;;;13.38;77.20;99321.06;10377860;28;20506;-85
2023/04/11 18:14:16;;;;;;;12.18;2.80;;;;;;;12.55;78.67;99206.25;10379820;28;20050;-85
2023/04/11 18:19:17;;;;;;;9.30;2.88;;;;;;;13.12;79.42;99294.47;10379365;28;20446;-87
2023/04/11 18:24:18;;;;;;;11.27;2.63;;;;;;;13.18;79.75;99318.44;10378706;28;20128;-82
2023/04/11 18:29:19;;;;;;;22.13;6.63;;;;;;;13.11;80.46;99328.31;10378099;28;20096;-83
2023/04/11 18:34:19;;;;;;;9.02;2.83;;;;;;;12.96;81.04;99330.41;10378542;28;20049;-84
2023/04/11 18:39:21;;;;;;;12.18;2.40;;;;;;;12.43;81.87;99250.53;10380725;28;20041;-85
2023/04/11 18:44:22;;;;;;;21.73;2.75;;;;;;;12.73;82.84;99307.66;10401067;28;20133;-86
2023/04/11 18:49:23;;;;;;;7.63;2.17;;;;;;;12.59;83.15;99314.03;10418122;28;20469;-86
2023/04/11 18:54:23;;;;;;;9.57;2.50;;;;;;;12.06;83.75;99234.19;10382248;28;20100;-84
2023/04/11 18:59:24;;;;;;;10.57;2.60;;;;;;;12.24;83.94;99276.97;10376350;28;20048;-81
2023/04/11 19:04:25;;;;;;;9.70;2.63;;;;;;;12.25;84.49;99297.25;10402893;28;20042;-84
2023/04/11 19:09:27;;;;;;;14.18;2.60;;;;;;;12.27;84.64;99332.47;10377772;28;20504;-85
2023/04/11 19:14:34;;;;;;;12.13;2.90;;;;;;;12.04;86.35;99278.81;10376792;28;20066;-85
2023/04/11 19:19:35;;;;;;;15.85;2.70;;;;;;;12.26;85.27;99306.84;10376978;28;20072;-85
2023/04/11 19:24:38;;;;;;;9.85;2.47;;;;;;;11.74;86.90;99215.28;10377214;28;20042;-83
2023/04/11 19:29:39;;;;;;;11.35;3.10;;;;;;;12.07;86.26;99262.41;10397843;28;20128;-84
2023/04/11 19:34:42;;;;;;;12.63;2.95;;;;;;;11.92;87.95;99233.34;10416187;28;20049;-85
2023/04/11 19:39:43;;;;;;;15.40;2.78;;;;;;;11.72;87.12;99197.88;10416940;28;20524;-84
2023/04/11 19:44:44;;;;;;;12.18;3.05;;;;;;;11.66;87.53;99188.84;10416202;28;20417;-84
2023/04/11 19:49:45;;;;;;;13.25;2.90;;;;;;;11.85;88.01;99245.84;10416735;28;20045;-84
2023/04/11 19:54:46;;;;;;;11.20;2.70;;;;;;;12.07;88.32;99273.88;10415471;28;20041;-85
2023/04/11 19:59:47;;;;;;;14.57;2.85;;;;;;;12.04;88.31;99271.63;10415375;28;20045;-83
2023/04/11 20:04:48;;;;;;;18.27;3.03;;;;;;;11.49;88.27;99169.03;10415144;28;20048;-83
2023/04/11 20:09:50;;;;;;;10.07;2.72;;;;;;;11.95;88.29;99238.25;10415267;28;20061;-85
2023/04/11 20:14:50;;;;;;;12.68;2.70;;;;;;;11.94;89.02;99251.78;10401206;28;20148;-84
2023/04/11 20:19:53;;;;;;;19.23;2.83;;;;;;;10.90;89.07;99094.25;10383557;28;20553;-85
2023/04/11 20:24:54;;;;;;;10.73;3.10;;;;;;;11.55;89.51;99205.44;10374229;28;20099;-86
2023/04/11 20:29:57;;;;;;;12.52;3.00;;;;;;;11.67;90.06;99214.47;10374342;28;20050;-84
2023/04/11 20:35:00;;;;;;;19.58;2.97;;;;;;;11.81;89.93;99248.03;10374285;28;20046;-83
2023/04/11 20:40:05;;;;;;;14.80;2.95;;;;;;;11.78;90.23;99229.00;10388947;28;20049;-84
2023/04/11 20:45:09;;;;;;;14.95;3.03;;;;;;;11.69;90.99;99244.31;10381699;28;20044;-85
2023/04/11 20:50:13;;;;;;;11.77;2.72;;;;;;;11.49;90.33;99211.56;10407482;28;20045;-83
2023/04/11 20:55:14;;;;;;;14.32;2.60;;;;;;;11.66;90.88;99237.56;10412876;28;20509;-84
2023/04/11 21:00:19;;;;;;;18.40;2.90;;;;;;;11.65;91.82;99256.41;10379673;28;20048;-83
2023/04/11 21:05:21;;;;;;;14.20;3.38;;;;;;;11.32;90.51;99211.09;10372750;28;20077;-84
2023/04/11 21:10:22;;;;;;;8.13;2.72;;;;;;;11.10;91.00;99146.66;10385964;28;20057;-83
2023/04/11 21:15:22;;;;;;;10.38;2.83;;;;;;;11.26;91.10;99177.34;10372211;28;20038;-84
2023/04/11 21:20:29;;;;;;;10.10;2.63;;;;;;;11.65;92.29;99224.47;10394740;28;20046;-84
2023/04/11 21:25:30;;;;;;;12.52;2.70;;;;;;;11.72;91.69;99232.47;10412850;28;20075;-83
2023/04/11 21:30:58;;;;;;;16.23;2.63;;;;;;;11.78;94.14;99274.22;10411181;28;20072;-83
2023/04/11 21:35:59;;;;;;;16.20;3.05;;;;;;;10.89;91.72;99111.22;10413781;28;20508;-81
2023/04/11 21:41:00;;;;;;;8.40;2.47;;;;;;;11.85;91.68;99277.75;10412523;28;20045;-85
2023/04/11 21:46:00;;;;;;;11.70;3.08;;;;;;;11.85;91.68;99265.28;10413271;28;20033;-83
2023/04/11 21:51:02;;;;;;;16.77;3.00;;;;;;;11.69;91.80;99231.03;10411294;28;20061;-84
2023/04/11 21:56:05;;;;;;;11.25;2.60;;;;;;;11.25;92.24;99152.63;10412608;28;20477;-83
2023/04/11 22:01:14;;;;;;;10.55;3.03;;;;;;;11.86;92.17;99211.03;10412065;28;20049;-81
2023/04/11 22:06:15;;;;;;;10.95;2.47;;;;;;;11.85;91.69;99209.38;10412392;28;20084;-82
2023/04/11 22:11:19;;;;;;;10.70;2.67;;;;;;;11.88;92.16;99206.31;10412461;28;20054;-81
2023/04/11 22:16:25;;;;;;;11.60;2.70;;;;;;;11.92;91.37;99213.91;10411785;28;20041;-83
2023/04/11 22:21:27;;;;;;;9.23;2.25;;;;;;;11.74;91.72;99183.34;10412454;28;20033;-81
2023/04/11 22:26:32;;;;;;;12.93;2.63;;;;;;;11.58;91.64;99165.16;10411990;28;20453;-81
2023/04/11 22:31:33;;;;;;;12.73;2.58;;;;;;;11.11;91.50;99087.16;10412203;28;20038;-83
2023/04/11 22:36:36;;;;;;;14.48;2.80;;;;;;;11.52;92.64;99163.28;10418553;28;20063;-83
2023/04/11 22:41:37;;;;;;;9.18;2.40;;;;;;;11.38;92.69;99149.16;10419036;28;20103;-80
2023/04/11 22:46:38;;;;;;;13.35;3.00;;;;;;;11.08;92.47;99095.53;10418647;28;20029;-81
2023/04/11 22:51:39;;;;;;;8.93;2.65;;;;;;;11.36;92.63;99128.06;10418039;28;20049;-81
2023/04/11 22:56:40;;;;;;;6.18;2.10;;;;;;;10.88;92.43;99029.88;10417976;28;20041;-80
2023/04/11 23:01:43;;;;;;;8.45;2.78;;;;;;;10.85;92.28;99024.97;10418293;28;20405;-80
2023/04/11 23:06:48;;;;;;;9.98;2.35;;;;;;;11.25;92.94;99075.53;10416563;28;20057;-80
2023/04/11 23:11:49;;;;;;;7.43;2.10;;;;;;;10.45;92.87;98990.34;10411247;28;20046;-83